Ocoee 3 Observed Data For Previous 48 Hours

Caption
Day and Hour Reservoir Elevation (behind dam)* Tailwater Elevation (below dam)* Average Hourly Discharge*
1/17/2018 2 AM EST 1,432.10 1,118.59 1,050
1/17/2018 3 AM EST 1,432.27 1,119.26 1,064
1/17/2018 4 AM EST 1,432.40 1,119.33 1,327
1/17/2018 5 AM EST 1,432.47 1,119.30 1,326
1/17/2018 6 AM EST 1,432.45 1,119.10 1,328
1/17/2018 7 AM EST 1,432.36 1,119.14 1,326
1/17/2018 8 AM EST 1,432.21 1,119.17 1,327
1/17/2018 9 AM EST 1,432.03 1,119.37 1,325
1/17/2018 10 AM EST 1,431.84 1,119.23 1,327
1/17/2018 11 AM EST 1,431.62 1,119.23 1,324
1/17/2018 12 PM EST 1,431.41 1,119.15 1,326
1/17/2018 1 PM EST 1,431.20 1,119.32 1,323
1/17/2018 2 PM EST 1,431.20 1,119.26 1,325
1/17/2018 3 PM EST 1,431.38 1,118.59 1,071
1/17/2018 4 PM EST 1,431.59 1,118.66 1,050
1/17/2018 5 PM EST 1,431.75 1,119.25 1,066
1/17/2018 6 PM EST 1,431.75 1,119.23 1,323
1/17/2018 7 PM EST 1,431.66 1,119.26 1,325
1/17/2018 8 PM EST 1,431.51 1,119.46 1,323
1/17/2018 9 PM EST 1,431.33 1,119.22 1,325
1/17/2018 10 PM EST 1,431.12 1,119.30 1,323
1/17/2018 11 PM EST 1,430.88 1,119.26 1,324
1/18/2018 12 AM EST 1,430.69 1,118.62 1,075
1/18/2018 1 AM EST 1,430.82 1,114.17 14
1/18/2018 2 AM EST 1,430.96 1,114.17 0
1/18/2018 3 AM EST 1,431.29 1,114.22 0
1/18/2018 4 AM EST 1,431.69 1,114.16 0
1/18/2018 5 AM EST 1,432.01 1,118.05 62
1/18/2018 6 AM EST 1,431.97 1,119.18 1,062
1/18/2018 7 AM EST 1,431.83 1,119.21 1,324
1/18/2018 8 AM EST 1,431.63 1,119.33 1,322
1/18/2018 9 AM EST 1,431.42 1,119.32 1,323
1/18/2018 10 AM EST 1,431.18 1,119.19 1,320
1/18/2018 11 AM EST 1,430.94 1,118.61 1,248
1/18/2018 12 PM EST 1,430.74 1,118.57 1,044
1/18/2018 1 PM EST 1,430.55 1,118.64 1,053
1/18/2018 2 PM EST 1,430.56 1,118.69 1,049
1/18/2018 3 PM EST 1,431.07 1,114.06 14
1/18/2018 4 PM EST 1,431.59 1,114.09 0
1/18/2018 5 PM EST 1,431.99 1,118.22 62
1/18/2018 6 PM EST 1,432.03 1,118.59 1,044
1/18/2018 7 PM EST 1,432.00 1,119.07 1,062
1/18/2018 8 PM EST 1,431.85 1,119.27 1,320
1/18/2018 9 PM EST 1,431.67 1,119.09 1,323
1/18/2018 10 PM EST 1,431.54 1,118.72 1,067
1/18/2018 11 PM EST 1,431.41 1,118.63 1,046
1/19/2018 12 AM EST 1,431.27 1,118.54 1,045

Elevations are in feet above sea level. Discharges are in cubic feet per second and are reported at the end of the hour.